createdAt,value
2023-06-21T00:00:33.356Z,151.33
2023-06-21T00:01:33.359Z,150.49
2023-06-21T00:02:33.419Z,150.63
2023-06-21T00:03:33.531Z,151.69
2023-06-21T00:04:33.451Z,151.52
2023-06-21T00:05:33.481Z,150.13
2023-06-21T00:06:33.498Z,152.34
2023-06-21T00:07:33.567Z,151.24
2023-06-21T00:08:33.575Z,150.89
2023-06-21T00:09:33.646Z,151.44
2023-06-21T00:10:33.625Z,150.23
2023-06-21T00:11:33.646Z,150.76
2023-06-21T00:12:33.687Z,150.85
2023-06-21T00:13:33.699Z,150.01
2023-06-21T00:14:33.721Z,151.57
2023-06-21T00:15:33.770Z,150.93
2023-06-21T00:16:33.780Z,151.50
2023-06-21T00:17:33.911Z,151.34
2023-06-21T00:18:33.858Z,151.24
2023-06-21T00:19:33.897Z,152.58
2023-06-21T00:20:33.909Z,151.32
2023-06-21T00:21:33.947Z,150.77
2023-06-21T00:22:33.960Z,151.28
2023-06-21T00:23:34.030Z,151.26
2023-06-21T00:24:34.063Z,150.99
2023-06-21T00:25:35.404Z,151.46
2023-06-21T00:26:34.155Z,150.82
2023-06-21T00:27:34.201Z,150.22
2023-06-21T00:28:34.217Z,150.47
2023-06-21T00:29:34.247Z,152.53
2023-06-21T00:30:34.324Z,151.03
2023-06-21T00:31:34.320Z,151.73
2023-06-21T00:32:34.421Z,151.42
2023-06-21T00:33:34.369Z,150.49
2023-06-21T00:34:34.403Z,150.55
2023-06-21T00:35:34.410Z,151.45
2023-06-21T00:36:34.447Z,151.19
2023-06-21T00:37:34.508Z,151.50
2023-06-21T00:38:34.542Z,149.92
2023-06-21T00:39:34.556Z,150.79
2023-06-21T00:40:34.932Z,151.66
2023-06-21T00:41:34.607Z,152.12
2023-06-21T00:42:34.696Z,149.63
2023-06-21T00:43:34.711Z,150.89
2023-06-21T00:44:34.710Z,150.71
2023-06-21T00:45:34.751Z,150.30
2023-06-21T00:46:34.832Z,150.87
2023-06-21T00:47:34.857Z,151.35
2023-06-21T00:48:34.851Z,150.83
2023-06-21T00:49:34.897Z,150.89
2023-06-21T00:50:34.940Z,150.96
2023-06-21T00:51:34.933Z,150.97
2023-06-21T00:52:35.024Z,150.70
2023-06-21T00:53:35.006Z,151.24
2023-06-21T00:54:35.084Z,150.96
2023-06-21T00:55:35.057Z,150.19
2023-06-21T00:56:35.208Z,150.61
2023-06-21T00:57:35.162Z,150.72
2023-06-21T00:58:35.157Z,150.09
2023-06-21T00:59:35.226Z,150.90
2023-06-21T01:00:35.236Z,149.71
2023-06-21T01:01:35.378Z,150.39
2023-06-21T01:02:35.365Z,149.84
2023-06-21T01:03:35.334Z,150.54
2023-06-21T01:04:35.333Z,150.83
2023-06-21T01:05:35.423Z,149.47
2023-06-21T01:06:35.404Z,150.91
2023-06-21T01:07:35.435Z,148.37
2023-06-21T01:08:35.467Z,149.29
2023-06-21T01:09:35.468Z,149.71
2023-06-21T01:10:35.487Z,150.03
2023-06-21T01:11:35.506Z,150.05
2023-06-21T01:12:35.603Z,149.95
2023-06-21T01:13:35.560Z,150.37
2023-06-21T01:14:35.610Z,149.99
2023-06-21T01:15:35.625Z,148.78
2023-06-21T01:16:35.674Z,148.34
2023-06-21T01:17:35.723Z,149.94
2023-06-21T01:18:35.723Z,149.77
2023-06-21T01:19:35.730Z,149.70
2023-06-21T01:20:35.781Z,150.35
2023-06-21T01:21:35.804Z,150.66
2023-06-21T01:22:35.857Z,149.99
2023-06-21T01:23:35.840Z,149.53
2023-06-21T01:24:35.953Z,149.79
2023-06-21T01:25:35.866Z,149.96
2023-06-21T01:26:35.927Z,150.43
2023-06-21T01:27:35.916Z,150.18
2023-06-21T01:28:35.942Z,148.86
2023-06-21T01:29:36.023Z,149.50
2023-06-21T01:30:36.040Z,150.61
2023-06-21T01:31:36.122Z,149.17
2023-06-21T01:32:36.124Z,150.36
2023-06-21T01:33:36.120Z,150.16
2023-06-21T01:34:36.125Z,148.91
2023-06-21T01:35:36.162Z,149.67
2023-06-21T01:36:36.224Z,149.52
2023-06-21T01:37:36.246Z,150.80
2023-06-21T01:38:36.258Z,149.62
2023-06-21T01:39:36.292Z,149.53
2023-06-21T01:40:36.334Z,150.29
2023-06-21T01:41:36.342Z,148.86
2023-06-21T01:42:36.382Z,150.53
2023-06-21T01:43:36.427Z,149.24
2023-06-21T01:44:36.509Z,149.12
2023-06-21T01:45:36.514Z,149.41
2023-06-21T01:46:36.507Z,150.29
2023-06-21T01:47:36.579Z,149.54
2023-06-21T01:48:36.592Z,148.00
2023-06-21T01:49:36.647Z,150.87
2023-06-21T01:50:36.651Z,149.82
2023-06-21T01:51:36.708Z,148.62
2023-06-21T01:52:36.744Z,150.45
2023-06-21T01:53:36.773Z,150.44
2023-06-21T01:54:36.815Z,149.02
2023-06-21T01:55:36.871Z,149.22
2023-06-21T01:56:36.864Z,149.79
2023-06-21T01:57:36.972Z,149.90
2023-06-21T01:58:36.956Z,149.26
2023-06-21T01:59:36.965Z,150.07
2023-06-21T02:00:36.991Z,149.72
2023-06-21T02:01:37.045Z,150.91
2023-06-21T02:02:37.532Z,149.39
2023-06-21T02:03:37.086Z,148.82
2023-06-21T02:04:37.127Z,148.70
2023-06-21T02:05:37.266Z,149.60
2023-06-21T02:06:37.231Z,149.69
2023-06-21T02:07:37.248Z,149.29
2023-06-21T02:08:37.254Z,148.39
2023-06-21T02:09:39.683Z,149.11
2023-06-21T02:10:37.442Z,150.15
2023-06-21T02:11:37.502Z,149.86
2023-06-21T02:12:37.528Z,149.87
2023-06-21T02:13:37.542Z,149.15
2023-06-21T02:14:37.569Z,149.30
2023-06-21T02:15:37.627Z,148.46
2023-06-21T02:16:37.663Z,149.97
2023-06-21T02:17:37.771Z,149.88
2023-06-21T02:18:37.720Z,148.50
2023-06-21T02:19:37.756Z,149.41
2023-06-21T02:20:37.793Z,148.69
2023-06-21T02:21:37.829Z,148.98
2023-06-21T02:22:37.877Z,149.56
2023-06-21T02:23:37.909Z,149.80
2023-06-21T02:24:38.068Z,149.13
2023-06-21T02:25:37.974Z,149.19
2023-06-21T02:26:38.008Z,150.16
2023-06-21T02:27:38.042Z,149.02
2023-06-21T02:28:38.102Z,149.55
2023-06-21T02:29:38.089Z,149.22
2023-06-21T02:30:38.142Z,149.68
2023-06-21T02:31:38.221Z,148.55
2023-06-21T02:32:38.278Z,149.73
2023-06-21T02:33:38.314Z,149.44
2023-06-21T02:34:38.278Z,149.63
2023-06-21T02:35:38.313Z,149.53
2023-06-21T02:36:38.353Z,149.45
2023-06-21T02:37:38.392Z,149.48
2023-06-21T02:38:38.436Z,149.40
2023-06-21T02:39:38.446Z,149.21
2023-06-21T02:40:38.487Z,148.70
2023-06-21T02:41:38.529Z,148.52
2023-06-21T02:42:38.529Z,149.84
2023-06-21T02:43:38.582Z,150.61
2023-06-21T02:44:38.620Z,148.27
2023-06-21T02:45:38.646Z,149.34
2023-06-21T02:46:38.714Z,150.40
2023-06-21T02:47:38.758Z,148.45
2023-06-21T02:48:38.736Z,148.54
2023-06-21T02:49:38.802Z,150.10
2023-06-21T02:50:38.810Z,148.79
2023-06-21T02:51:38.844Z,149.61
2023-06-21T02:52:38.890Z,148.76
2023-06-21T02:53:38.956Z,148.80
2023-06-21T02:54:38.959Z,148.50
2023-06-21T02:55:38.988Z,149.80
2023-06-21T02:56:39.006Z,149.55
2023-06-21T02:57:39.050Z,148.94
2023-06-21T02:58:39.066Z,149.95
2023-06-21T02:59:39.137Z,149.29
2023-06-21T03:00:39.182Z,148.54
2023-06-21T03:01:39.173Z,148.80
2023-06-21T03:02:39.284Z,148.02
2023-06-21T03:03:39.324Z,149.23
2023-06-21T03:04:39.301Z,148.79
2023-06-21T03:05:39.342Z,150.34
2023-06-21T03:06:39.354Z,148.52
2023-06-21T03:07:39.399Z,148.17
2023-06-21T03:08:39.429Z,148.58
2023-06-21T03:09:39.480Z,149.47
2023-06-21T03:10:39.518Z,148.03
2023-06-21T03:11:39.562Z,148.08
2023-06-21T03:12:39.621Z,149.30
2023-06-21T03:13:39.635Z,148.77
2023-06-21T03:14:39.699Z,147.38
2023-06-21T03:15:39.722Z,148.88
2023-06-21T03:16:39.778Z,148.26
2023-06-21T03:17:39.846Z,148.77
2023-06-21T03:18:39.835Z,148.60
2023-06-21T03:19:39.882Z,147.73
2023-06-21T03:20:39.940Z,147.97
2023-06-21T03:21:39.952Z,148.40
2023-06-21T03:22:40.008Z,149.44
2023-06-21T03:23:40.048Z,148.53
2023-06-21T03:24:40.205Z,150.25
2023-06-21T03:25:40.128Z,148.86
2023-06-21T03:26:40.167Z,149.23
2023-06-21T03:27:40.300Z,148.32
2023-06-21T03:28:40.306Z,148.48
2023-06-21T03:29:40.315Z,148.34
2023-06-21T03:30:40.345Z,149.49
2023-06-21T03:31:40.452Z,152.24
2023-06-21T03:32:40.502Z,148.22
2023-06-21T03:33:40.497Z,148.68
2023-06-21T03:34:40.520Z,149.19
2023-06-21T03:35:40.601Z,148.07
2023-06-21T03:36:40.638Z,148.46
2023-06-21T03:37:40.671Z,148.22
2023-06-21T03:38:40.708Z,148.50
2023-06-21T03:39:40.769Z,148.46
2023-06-21T03:40:40.829Z,149.47
2023-06-21T03:41:40.855Z,147.97
2023-06-21T03:42:40.892Z,148.43
2023-06-21T03:43:40.935Z,149.47
2023-06-21T03:44:40.968Z,148.19
2023-06-21T03:45:41.026Z,149.47
2023-06-21T03:46:41.149Z,148.89
2023-06-21T03:47:41.429Z,149.23
2023-06-21T03:48:41.170Z,147.80
2023-06-21T03:49:41.221Z,150.30
2023-06-21T03:50:41.287Z,148.78
2023-06-21T03:51:41.301Z,148.53
2023-06-21T03:52:41.396Z,147.45
2023-06-21T03:53:41.422Z,148.23
2023-06-21T03:54:41.448Z,147.44
2023-06-21T03:55:41.499Z,146.92
2023-06-21T03:56:41.544Z,149.15
2023-06-21T03:57:41.610Z,149.16
2023-06-21T03:58:41.637Z,148.66
2023-06-21T03:59:41.709Z,147.57
2023-06-21T04:00:41.722Z,147.68
2023-06-21T04:01:41.799Z,147.87
2023-06-21T04:02:41.879Z,148.99
2023-06-21T04:03:41.906Z,148.80
2023-06-21T04:04:41.895Z,147.80
2023-06-21T04:05:41.966Z,148.22
2023-06-21T04:06:41.959Z,148.06
2023-06-21T04:07:42.085Z,148.08
2023-06-21T04:08:42.044Z,147.08
2023-06-21T04:09:42.103Z,149.07
2023-06-21T04:10:42.128Z,146.99
2023-06-21T04:11:42.171Z,147.53
2023-06-21T04:12:42.617Z,146.59
2023-06-21T04:13:42.249Z,147.94
2023-06-21T04:14:42.267Z,147.86
2023-06-21T04:15:42.335Z,146.78
2023-06-21T04:16:42.339Z,147.92
2023-06-21T04:17:42.601Z,146.94
2023-06-21T04:18:42.424Z,150.00
2023-06-21T04:19:42.450Z,146.87
2023-06-21T04:20:42.500Z,147.77
2023-06-21T04:21:42.544Z,148.15
2023-06-21T04:22:43.115Z,148.16
2023-06-21T04:23:42.612Z,147.45
2023-06-21T04:24:42.711Z,147.21
2023-06-21T04:25:42.669Z,147.24
2023-06-21T04:26:42.711Z,149.70
2023-06-21T04:27:43.092Z,146.79
2023-06-21T04:28:42.795Z,147.61
2023-06-21T04:29:42.835Z,147.88
2023-06-21T04:30:42.839Z,147.99
2023-06-21T04:31:42.925Z,147.61
2023-06-21T04:32:43.071Z,145.94
2023-06-21T04:33:42.960Z,146.42
2023-06-21T04:34:43.002Z,144.34
2023-06-21T04:35:43.085Z,146.77
2023-06-21T04:36:43.105Z,145.92
2023-06-21T04:37:43.156Z,146.93
2023-06-21T04:38:43.174Z,145.99
2023-06-21T04:39:43.226Z,146.10
2023-06-21T04:40:43.558Z,146.75
2023-06-21T04:41:43.312Z,146.09
2023-06-21T04:42:43.386Z,146.59
2023-06-21T04:43:43.402Z,146.45
2023-06-21T04:44:43.428Z,147.08
2023-06-21T04:45:43.484Z,147.36
2023-06-21T04:46:43.510Z,147.94
2023-06-21T04:47:43.599Z,146.15
2023-06-21T04:48:43.627Z,145.17
2023-06-21T04:49:43.645Z,145.67
2023-06-21T04:50:43.696Z,145.68
2023-06-21T04:51:43.740Z,146.50
2023-06-21T04:52:43.787Z,146.92
2023-06-21T04:53:43.859Z,146.70
2023-06-21T04:54:43.887Z,147.16
2023-06-21T04:55:43.915Z,145.44
2023-06-21T04:56:43.995Z,144.10
2023-06-21T04:57:43.978Z,146.13
2023-06-21T04:58:44.063Z,145.86
2023-06-21T04:59:44.067Z,145.13
2023-06-21T05:00:44.137Z,144.36
2023-06-21T05:01:44.186Z,146.90
2023-06-21T05:02:44.298Z,145.43
2023-06-21T05:03:44.271Z,146.08
2023-06-21T05:04:44.265Z,145.67
2023-06-21T05:05:44.344Z,145.53
2023-06-21T05:06:44.368Z,144.08
2023-06-21T05:07:44.433Z,145.19
2023-06-21T05:08:44.443Z,145.70
2023-06-21T05:09:44.516Z,144.92
2023-06-21T05:10:44.514Z,144.76
2023-06-21T05:11:44.557Z,144.90
2023-06-21T05:12:45.099Z,143.27
2023-06-21T05:13:44.638Z,144.06
2023-06-21T05:14:44.706Z,143.16
2023-06-21T05:15:44.753Z,142.95
2023-06-21T05:16:44.775Z,142.92
2023-06-21T05:17:45.147Z,142.90
2023-06-21T05:18:44.855Z,143.01
2023-06-21T05:19:44.874Z,144.62
2023-06-21T05:20:44.932Z,143.73
2023-06-21T05:21:44.983Z,144.80
2023-06-21T05:22:44.993Z,144.61
2023-06-21T05:23:45.033Z,142.77
2023-06-21T05:24:45.130Z,142.97
2023-06-21T05:25:45.132Z,144.00
2023-06-21T05:26:45.190Z,142.17
2023-06-21T05:27:45.193Z,142.97
2023-06-21T05:28:45.249Z,143.37
2023-06-21T05:29:45.265Z,143.01
2023-06-21T05:30:45.392Z,143.41
2023-06-21T05:31:45.372Z,143.17
2023-06-21T05:32:45.389Z,142.98
2023-06-21T05:33:45.446Z,141.36
2023-06-21T05:34:45.464Z,144.00
2023-06-21T05:35:45.492Z,142.85
2023-06-21T05:36:45.522Z,144.41
2023-06-21T05:37:45.628Z,143.68
2023-06-21T05:38:45.568Z,143.05
2023-06-21T05:39:45.620Z,141.97
2023-06-21T05:40:45.633Z,142.08
2023-06-21T05:41:45.658Z,142.75
2023-06-21T05:42:45.734Z,141.53
2023-06-21T05:43:45.771Z,142.19
2023-06-21T05:44:45.809Z,141.01
2023-06-21T05:45:45.848Z,141.52
2023-06-21T05:46:45.947Z,139.74
2023-06-21T05:47:46.216Z,143.73
2023-06-21T05:48:45.935Z,162.33
2023-06-21T05:49:46.017Z,178.79
2023-06-21T05:50:46.021Z,180.00
2023-06-21T05:51:46.051Z,182.86
2023-06-21T05:52:46.138Z,177.36
2023-06-21T05:53:46.108Z,179.17
2023-06-21T05:54:46.140Z,186.22
2023-06-21T05:55:46.138Z,191.04
2023-06-21T05:56:46.155Z,190.14
2023-06-21T05:57:46.161Z,190.43
2023-06-21T05:58:46.188Z,189.49
2023-06-21T05:59:46.202Z,188.95
2023-06-21T06:00:46.200Z,197.25
2023-06-21T06:01:46.212Z,211.77
2023-06-21T06:02:46.219Z,228.57
2023-06-21T06:03:46.272Z,238.63
2023-06-21T06:04:46.210Z,244.42
2023-06-21T06:05:46.238Z,248.48
2023-06-21T06:06:46.293Z,263.83
2023-06-21T06:07:46.341Z,249.56
2023-06-21T06:08:46.417Z,244.30
2023-06-21T06:09:46.509Z,250.00
2023-06-21T06:10:46.574Z,254.76
2023-06-21T06:11:46.658Z,235.63
2023-06-21T06:12:46.700Z,234.78
2023-06-21T06:13:46.756Z,236.63
2023-06-21T06:14:46.800Z,242.28
2023-06-21T06:15:46.819Z,238.56
2023-06-21T06:16:46.947Z,235.30
2023-06-21T06:17:47.001Z,242.08
2023-06-21T06:18:46.978Z,235.07
2023-06-21T06:19:47.016Z,233.95
2023-06-21T06:20:48.641Z,234.97
2023-06-21T06:21:47.095Z,238.18
2023-06-21T06:22:47.070Z,243.27
2023-06-21T06:23:47.042Z,245.08
2023-06-21T06:24:47.075Z,244.71
2023-06-21T06:25:47.062Z,241.45
2023-06-21T06:26:47.025Z,239.69
2023-06-21T06:27:47.021Z,239.55
2023-06-21T06:28:47.021Z,240.22
2023-06-21T06:29:47.001Z,236.61
2023-06-21T06:30:47.026Z,237.18
2023-06-21T06:31:47.104Z,239.33
2023-06-21T06:32:47.059Z,237.50
2023-06-21T06:33:46.976Z,240.81
2023-06-21T06:34:46.997Z,243.55
2023-06-21T06:35:46.974Z,247.72
2023-06-21T06:36:53.476Z,237.80
2023-06-21T06:37:47.988Z,238.11
2023-06-21T06:38:46.971Z,239.34
2023-06-21T06:39:46.978Z,242.56
2023-06-21T06:40:46.944Z,249.89
2023-06-21T06:41:46.949Z,260.27
2023-06-21T06:42:46.910Z,249.82
2023-06-21T06:43:46.940Z,249.75
2023-06-21T06:44:46.908Z,248.50
2023-06-21T06:45:46.909Z,247.99
2023-06-21T06:46:46.874Z,246.96
2023-06-21T06:47:46.906Z,249.54
2023-06-21T06:48:46.887Z,249.12
2023-06-21T06:49:46.904Z,248.81
2023-06-21T06:50:46.893Z,245.87
2023-06-21T06:51:46.878Z,240.60
2023-06-21T06:52:47.063Z,238.70
2023-06-21T06:53:46.853Z,240.71
2023-06-21T06:54:46.842Z,242.34
2023-06-21T06:55:46.834Z,240.21
2023-06-21T06:56:46.850Z,240.40
2023-06-21T06:58:00.494Z,240.76
2023-06-21T06:58:47.827Z,240.94
2023-06-21T06:59:46.809Z,241.72
2023-06-21T07:00:46.827Z,243.07
2023-06-21T07:01:46.784Z,246.07
2023-06-21T07:02:46.877Z,247.82
2023-06-21T07:03:47.014Z,246.85
2023-06-21T07:04:46.873Z,238.55
2023-06-21T07:05:46.800Z,239.47
2023-06-21T07:06:46.786Z,239.25
2023-06-21T07:07:47.167Z,232.69
2023-06-21T07:08:46.732Z,227.49
2023-06-21T07:09:46.788Z,231.56
2023-06-21T07:10:46.748Z,225.75
2023-06-21T07:11:46.755Z,211.97
2023-06-21T07:12:47.184Z,214.16
2023-06-21T07:13:46.766Z,213.52
2023-06-21T07:14:46.697Z,209.91
2023-06-21T07:15:46.721Z,205.63
2023-06-21T07:16:46.705Z,199.68
2023-06-21T07:17:46.717Z,200.50
2023-06-21T07:18:46.687Z,200.70
2023-06-21T07:19:46.733Z,202.35
2023-06-21T07:20:46.745Z,196.21
2023-06-21T07:21:46.699Z,199.17
2023-06-21T07:22:46.640Z,199.58
2023-06-21T07:23:46.689Z,200.78
2023-06-21T07:24:47.252Z,200.53
2023-06-21T07:25:46.649Z,205.48
2023-06-21T07:26:46.650Z,202.42
2023-06-21T07:27:46.658Z,205.85
2023-06-21T07:28:46.605Z,206.52
2023-06-21T07:29:46.618Z,201.45
2023-06-21T07:30:46.627Z,203.82
2023-06-21T07:31:46.585Z,203.49
2023-06-21T07:32:46.677Z,205.29
2023-06-21T07:33:46.606Z,208.74
2023-06-21T07:34:46.597Z,211.36
2023-06-21T07:35:46.560Z,212.55
2023-06-21T07:36:46.543Z,212.51
2023-06-21T07:37:46.588Z,214.37
2023-06-21T07:38:46.582Z,212.06
2023-06-21T07:39:54.476Z,208.49
2023-06-21T07:40:47.681Z,208.59
2023-06-21T07:41:46.548Z,208.94
2023-06-21T07:42:46.700Z,209.77
2023-06-21T07:43:46.517Z,216.57
2023-06-21T07:44:46.560Z,220.82
2023-06-21T07:45:46.532Z,219.16
2023-06-21T07:46:46.589Z,210.64
2023-06-21T07:47:46.525Z,195.28
2023-06-21T07:48:46.469Z,194.68
2023-06-21T07:49:46.468Z,200.70
2023-06-21T07:50:46.496Z,188.34
2023-06-21T07:51:46.466Z,197.18
2023-06-21T07:52:46.441Z,197.17
2023-06-21T07:53:46.480Z,200.26
2023-06-21T07:54:46.482Z,208.04
2023-06-21T07:55:46.448Z,217.41
2023-06-21T07:56:46.469Z,218.99
2023-06-21T07:57:46.454Z,223.99
2023-06-21T07:58:46.524Z,231.89
2023-06-21T07:59:46.580Z,234.87
2023-06-21T08:00:46.637Z,241.19
2023-06-21T08:01:46.740Z,248.11
2023-06-21T08:02:46.808Z,248.74
2023-06-21T08:03:46.784Z,250.00
2023-06-21T08:04:47.688Z,249.85
2023-06-21T08:05:46.880Z,250.00
2023-06-21T08:06:46.902Z,250.15
2023-06-21T08:07:46.954Z,250.00
2023-06-21T08:08:46.984Z,250.00
2023-06-21T08:09:47.029Z,249.53
2023-06-21T08:10:47.056Z,247.83
2023-06-21T08:11:47.062Z,248.17
2023-06-21T08:12:47.067Z,250.00
2023-06-21T08:13:47.201Z,250.00
2023-06-21T08:14:47.130Z,249.94
2023-06-21T08:15:47.166Z,250.00
2023-06-21T08:16:47.176Z,250.00
2023-06-21T08:17:47.236Z,249.58
2023-06-21T08:18:47.229Z,250.00
2023-06-21T08:19:47.227Z,249.59
2023-06-21T08:20:47.230Z,249.86
2023-06-21T08:21:47.246Z,250.00
2023-06-21T08:22:47.364Z,249.91
2023-06-21T08:23:47.306Z,250.00
2023-06-21T08:24:47.270Z,249.20
2023-06-21T08:25:47.274Z,247.60
2023-06-21T08:26:47.278Z,230.07
2023-06-21T08:27:47.283Z,209.57
2023-06-21T08:28:47.373Z,171.34
2023-06-21T08:29:47.434Z,146.07
2023-06-21T08:30:47.455Z,129.26
2023-06-21T08:31:47.505Z,101.35
2023-06-21T08:32:47.591Z,87.17
2023-06-21T08:33:47.568Z,84.02
2023-06-21T08:34:47.575Z,83.76
2023-06-21T08:35:47.611Z,91.02
2023-06-21T08:36:47.591Z,88.46
2023-06-21T08:37:47.616Z,63.50
2023-06-21T08:38:47.623Z,52.97
2023-06-21T08:39:47.614Z,50.31
2023-06-21T08:40:47.599Z,43.74
2023-06-21T08:41:47.695Z,50.84
2023-06-21T08:42:47.664Z,39.67
2023-06-21T08:43:47.652Z,48.24
2023-06-21T08:44:47.625Z,58.24
2023-06-21T08:45:47.632Z,51.94
2023-06-21T08:46:47.629Z,55.74
2023-06-21T08:47:47.667Z,52.18
2023-06-21T08:48:47.708Z,44.67
2023-06-21T08:49:47.661Z,34.99
2023-06-21T08:50:47.662Z,27.62
2023-06-21T08:51:47.712Z,35.08
2023-06-21T08:52:47.722Z,27.62
2023-06-21T08:53:47.724Z,23.66
2023-06-21T08:54:47.762Z,17.94
2023-06-21T08:55:47.802Z,20.73
2023-06-21T08:56:47.850Z,36.02
2023-06-21T08:57:47.963Z,50.39
2023-06-21T08:58:47.915Z,65.46
2023-06-21T08:59:47.920Z,80.27
2023-06-21T09:00:47.937Z,90.90
2023-06-21T09:01:48.057Z,101.41
2023-06-21T09:02:48.101Z,113.07
2023-06-21T09:03:48.161Z,124.80
2023-06-21T09:04:48.139Z,135.07
2023-06-21T09:05:48.009Z,142.16
2023-06-21T09:06:48.049Z,147.92
2023-06-21T09:07:48.082Z,154.60
2023-06-21T09:08:48.101Z,162.14
2023-06-21T09:09:48.075Z,167.70
2023-06-21T09:10:48.090Z,171.94
2023-06-21T09:11:48.121Z,175.99
2023-06-21T09:12:49.617Z,181.26
2023-06-21T09:13:48.074Z,186.47
2023-06-21T09:14:48.090Z,190.84
2023-06-21T09:15:48.075Z,195.85
2023-06-21T09:16:48.286Z,199.04
2023-06-21T09:17:48.086Z,197.08
2023-06-21T09:18:48.050Z,181.06
2023-06-21T09:19:48.048Z,181.32
2023-06-21T09:20:48.126Z,185.56
2023-06-21T09:21:48.050Z,191.85
2023-06-21T09:22:48.037Z,192.10
2023-06-21T09:23:48.041Z,174.37
2023-06-21T09:24:47.998Z,178.91
2023-06-21T09:25:48.014Z,178.83
2023-06-21T09:26:48.006Z,180.61
2023-06-21T09:27:47.989Z,181.13
2023-06-21T09:28:48.000Z,183.69
2023-06-21T09:29:47.996Z,181.92
2023-06-21T09:30:48.325Z,182.70
2023-06-21T09:31:47.967Z,182.84
2023-06-21T09:32:48.050Z,183.28
2023-06-21T09:33:48.288Z,184.30
2023-06-21T09:34:47.971Z,183.89
2023-06-21T09:35:48.005Z,183.43
2023-06-21T09:36:47.929Z,182.38
2023-06-21T09:37:48.147Z,182.22
2023-06-21T09:38:47.948Z,182.86
2023-06-21T09:39:47.900Z,182.44
2023-06-21T09:40:47.903Z,182.22
2023-06-21T09:41:47.927Z,182.56
2023-06-21T09:42:47.901Z,183.14
2023-06-21T09:43:47.916Z,182.58
2023-06-21T09:44:47.887Z,182.55
2023-06-21T09:45:47.881Z,183.41
2023-06-21T09:46:47.868Z,183.16
2023-06-21T09:47:48.238Z,183.06
2023-06-21T09:48:49.787Z,183.63
2023-06-21T09:49:47.864Z,183.99
2023-06-21T09:50:47.983Z,183.38
2023-06-21T09:51:48.043Z,183.28
2023-06-21T09:52:48.071Z,184.25
2023-06-21T09:53:48.140Z,183.08
2023-06-21T09:54:49.391Z,184.42
2023-06-21T09:55:48.274Z,183.51
2023-06-21T09:56:48.325Z,183.19
2023-06-21T09:57:48.400Z,184.65
2023-06-21T09:58:48.499Z,183.32
2023-06-21T09:59:48.503Z,184.01
2023-06-21T10:00:48.644Z,183.41
2023-06-21T10:01:48.572Z,184.38
2023-06-21T10:02:48.632Z,183.46
2023-06-21T10:03:48.982Z,181.86
2023-06-21T10:04:48.745Z,183.72
2023-06-21T10:05:48.703Z,183.66
2023-06-21T10:06:48.742Z,182.92
2023-06-21T10:07:48.860Z,182.97
2023-06-21T10:08:48.879Z,182.65
2023-06-21T10:09:48.880Z,182.40
2023-06-21T10:10:48.891Z,182.97
2023-06-21T10:11:48.920Z,181.49
2023-06-21T10:12:48.922Z,181.52
2023-06-21T10:13:49.281Z,181.67
2023-06-21T10:14:48.948Z,181.70
2023-06-21T10:15:48.955Z,181.65
2023-06-21T10:16:48.984Z,181.33
2023-06-21T10:17:59.968Z,180.72
2023-06-21T10:18:50.026Z,180.79
2023-06-21T10:19:48.961Z,180.94
2023-06-21T10:20:49.010Z,180.94
2023-06-21T10:21:48.993Z,180.52
2023-06-21T10:22:48.989Z,180.63
2023-06-21T10:23:48.929Z,180.66
2023-06-21T10:24:48.936Z,180.17
2023-06-21T10:25:48.922Z,180.04
2023-06-21T10:26:48.907Z,179.94
2023-06-21T10:27:48.919Z,179.48
2023-06-21T10:28:48.922Z,179.83
2023-06-21T10:29:48.944Z,178.23
2023-06-21T10:30:48.901Z,179.10
2023-06-21T10:31:48.931Z,178.72
2023-06-21T10:32:48.942Z,179.15
2023-06-21T10:33:48.906Z,177.94
2023-06-21T10:34:48.908Z,177.47
2023-06-21T10:35:48.884Z,178.18
2023-06-21T10:36:48.990Z,178.27
2023-06-21T10:37:48.896Z,177.83
2023-06-21T10:38:49.267Z,177.36
2023-06-21T10:39:55.399Z,177.72
2023-06-21T10:40:49.842Z,177.82
2023-06-21T10:41:48.875Z,177.85
2023-06-21T10:42:48.838Z,177.99
2023-06-21T10:43:49.278Z,177.47
2023-06-21T10:44:48.818Z,176.46
2023-06-21T10:45:48.856Z,175.75
2023-06-21T10:46:48.791Z,175.15
2023-06-21T10:47:48.934Z,174.66
2023-06-21T10:48:49.277Z,173.57
2023-06-21T10:49:48.831Z,173.79
2023-06-21T10:50:48.831Z,172.75
2023-06-21T10:51:48.764Z,173.00
2023-06-21T10:52:48.782Z,173.48
2023-06-21T10:53:48.782Z,173.61
2023-06-21T10:54:48.748Z,173.72
2023-06-21T10:55:48.734Z,173.82
2023-06-21T10:56:48.735Z,172.87
2023-06-21T10:57:48.779Z,172.71
2023-06-21T10:58:48.735Z,172.49
2023-06-21T10:59:48.734Z,172.01
2023-06-21T11:00:49.016Z,172.09
2023-06-21T11:01:48.807Z,171.63
2023-06-21T11:02:48.712Z,171.55
2023-06-21T11:03:48.738Z,170.77
2023-06-21T11:04:54.301Z,169.31
2023-06-21T11:05:49.674Z,169.40
2023-06-21T11:06:48.695Z,169.65
2023-06-21T11:07:48.683Z,169.69
2023-06-21T11:08:48.668Z,169.72
2023-06-21T11:09:48.645Z,169.63
2023-06-21T11:10:48.660Z,169.58
2023-06-21T11:11:48.639Z,167.80
2023-06-21T11:12:48.676Z,167.64
2023-06-21T11:13:48.926Z,167.55
2023-06-21T11:14:48.603Z,166.70
2023-06-21T11:15:48.650Z,166.73
2023-06-21T11:16:48.557Z,167.28
2023-06-21T11:17:48.638Z,167.59
2023-06-21T11:18:48.729Z,166.80
2023-06-21T11:19:48.700Z,165.77
2023-06-21T11:20:48.555Z,165.90
2023-06-21T11:21:48.696Z,164.87
2023-06-21T11:22:48.546Z,165.17
2023-06-21T11:23:48.867Z,165.70
2023-06-21T11:24:48.539Z,165.29
2023-06-21T11:25:48.503Z,164.71
2023-06-21T11:26:48.539Z,165.17
2023-06-21T11:27:48.547Z,164.35
2023-06-21T11:28:48.476Z,163.75
2023-06-21T11:29:48.502Z,164.87
2023-06-21T11:30:48.572Z,164.80
2023-06-21T11:31:48.655Z,163.45
2023-06-21T11:32:48.536Z,163.33
2023-06-21T11:33:48.913Z,163.66
2023-06-21T11:34:48.458Z,163.28
2023-06-21T11:35:48.494Z,163.77
2023-06-21T11:36:48.471Z,163.06
2023-06-21T11:37:48.443Z,163.55
2023-06-21T11:38:48.790Z,163.14
2023-06-21T11:39:48.480Z,161.75
2023-06-21T11:40:48.497Z,161.14
2023-06-21T11:41:48.526Z,161.84
2023-06-21T11:42:48.606Z,161.46
2023-06-21T11:43:48.539Z,161.43
2023-06-21T11:44:48.560Z,160.83
2023-06-21T11:45:50.088Z,160.84
2023-06-21T11:46:48.579Z,160.94
2023-06-21T11:47:48.722Z,160.48
2023-06-21T11:48:48.840Z,160.16
2023-06-21T11:49:48.628Z,160.59
2023-06-21T11:50:48.640Z,161.38
2023-06-21T11:51:48.647Z,160.69
2023-06-21T11:52:48.702Z,159.55
2023-06-21T11:53:48.693Z,159.89
2023-06-21T11:54:48.701Z,160.10
2023-06-21T11:55:48.730Z,158.77
2023-06-21T11:56:48.733Z,159.48
2023-06-21T11:57:48.791Z,159.08
2023-06-21T11:58:48.836Z,159.40
2023-06-21T11:59:48.835Z,159.29
2023-06-21T12:00:48.879Z,158.98
2023-06-21T12:01:48.855Z,158.62
2023-06-21T12:02:48.921Z,159.61
2023-06-21T12:03:49.048Z,158.77
2023-06-21T12:04:49.034Z,158.02
2023-06-21T12:05:48.993Z,157.93
2023-06-21T12:06:48.971Z,158.74
2023-06-21T12:07:49.019Z,159.19
2023-06-21T12:08:49.057Z,157.91
2023-06-21T12:09:52.003Z,158.00
2023-06-21T12:10:49.051Z,158.08
2023-06-21T12:11:49.079Z,158.12
2023-06-21T12:12:49.091Z,157.38
2023-06-21T12:13:49.037Z,158.11
2023-06-21T12:14:49.025Z,159.22
2023-06-21T12:15:49.078Z,157.02
2023-06-21T12:16:49.066Z,157.42
2023-06-21T12:17:49.066Z,157.32
2023-06-21T12:18:49.302Z,157.59
2023-06-21T12:19:49.006Z,157.86
2023-06-21T12:20:51.051Z,156.27
2023-06-21T12:21:48.992Z,158.00
2023-06-21T12:22:49.012Z,157.12
2023-06-21T12:23:48.974Z,158.02
2023-06-21T12:24:48.966Z,155.88
2023-06-21T12:25:48.943Z,156.09
2023-06-21T12:26:48.937Z,156.38
2023-06-21T12:27:48.946Z,156.18
2023-06-21T12:28:49.404Z,156.17
2023-06-21T12:29:48.944Z,155.93